AirNav   SIMCOM
 
 597 users online  

WS42 Owen-Withee Airport
Withee, Wisconsin, USA

GOING TO WITHEE?


FAA INFORMATION EFFECTIVE 20 JULY 2017

Location

FAA Identifier: WS42
Lat/Long: 44-56-59.8860N / 090-36-00.4870W
44-56.998100N / 090-36.008117W
44.9499683 / -90.6001353
(estimated)
Elevation: 1286 ft. / 392 m (estimated)
Variation: 01E (1985)
From city: 1 mile S of WITHEE, WI
Time zone: UTC -5 (UTC -6 during Standard Time)
Zip code: 54498

Airport Operations

Airport use: Private use. Permission required prior to landing
Activation date: 06/1987
Control tower: no
ARTCC: MINNEAPOLIS CENTER
FSS: GREEN BAY FLIGHT SERVICE STATION
Attendance: UNATNDD
Wind indicator: yes
Segmented circle: no

Airport Communications

WX AWOS-3 at MDZ (16 nm NE): 119.025 (715-678-6030)

Nearby radio navigation aids

VOR radial/distance  VOR name  Freq  Var
EAUr081/37.4EAU CLAIRE VORTAC112.9004E

 
NDB name  Hdg/Dist  Freq  Var  ID
NEILLSVILLE352/23.836801WVIQ ...- .. --.-
MARSHFIELD317/25.539100EMFI -- ..-. ..
RUSK COUNTY153/37.235600WRCX .-. -.-. -..-

Airport Services

Airframe service: NONE
Powerplant service: NONE

Runway Information

Runway E/W

Dimensions: 2600 x 100 ft. / 792 x 30 m
Surface: turf
RUNWAY E  RUNWAY W
Traffic pattern: leftleft
Obstructions: pline, marked, 40 ft. from runwaynone

Airport Ownership and Management from official FAA records

Ownership: Privately-owned
Owner: ROLAND MISFELDT
W5799 OAK RD
WITHEE, WI 54498
Phone 715-229-4482
Manager: Phone 715-229-4160

Airport Operational Statistics

Aircraft based on the field: 2
Single engine airplanes: 2
    

Additional Remarks

OWNER DESIRES ARPT NOT BE CHARTED.

Instrument Procedures

There are no published instrument procedures at WS42.

Some nearby airports with instrument procedures:

KMDZ - Taylor County Airport (16 nm NE)
KVIQ - Neillsville Municipal Airport (24 nm S)
KMFI - Marshfield Municipal Airport (26 nm SE)
KRCX - Rusk County Airport (37 nm NW)
KEAU - Chippewa Valley Regional Airport (38 nm W)
 
Loc | Ops | Rwys | IFR | FBO | Links
Com | Nav | Svcs | Stats | Notes


 
Area around WS42 (Owen-Withee Airport)
 
Road maps at: MapQuest Bing Google
 
Aerial photo
No photo
 
Sectional chart

 
Airport distance calculator
Flying to Owen-Withee Airport? Find the distance to fly.

From to WS42

Sunrise and sunset
Times for 26-Jul-2017
 Local
(UTC-5)
 Zulu
(UTC)
Morning civil twilight05:0810:08
Sunrise05:4210:42
Sunset20:3601:36
Evening civil twilight21:1002:10

Current date and time
Zulu (UTC)  26-Jul-2017 11:10:41
Local (UTC-5)  26-Jul-2017 06:10:41
 
METAR
KMDZ 
16nm NE 
261055Z AUTO 17003KT 7SM CLR 19/19 A2999 RMK AO2 T01940187
KMFI 
26nm SE 
261054Z AUTO 19006KT 6SM BR FEW044 FEW090 SCT120 19/18 A2999 RMK AO2 RAB42E52 SLP152 P0000 T01940183 TSNO
TAF
KEAU 
37nm W 
260545Z 2606/2706 18005KT P6SM VCSH SCT045 OVC150 FM261000 VRB03KT 6SM SHRA VCTS BKN040CB OVC120 FM261400 28005KT P6SM -SHRA BKN040 OVC120 FM261800 30005KT P6SM OVC040 FM270000 VRB03KT P6SM FEW050
KCWA 
41nm E 
260821Z 2608/2706 19006KT 3SM -SHRA BKN035 WS020/23035KT TEMPO 2608/2612 1SM +TSRA BKN025CB FM261200 21006KT 6SM -TSRA SCT025 OVC035CB FM261500 24006KT P6SM -SHRA BKN025 FM261900 26006KT P6SM BKN030 OVC150 FM270000 32004KT P6SM SCT030 BKN150
KAUW 
42nm E 
260802Z 2608/2706 19006KT 3SM -SHRA BKN035 WS020/23035KT TEMPO 2608/2609 22015G25KT 1SM +TSRA BKN025CB FM260900 20005KT 3SM -SHRA OVC035 WS020/24035KT TEMPO 2609/2612 22015G25KT 1SM +TSRA BKN025CB FM261200 21006KT 6SM -TSRA SCT025 OVC035CB FM261500 24006KT P6SM -SHRA BKN025 FM261900 26006KT P6SM BKN030 OVC150 FM270000 32004KT P6SM SCT030 BKN150
NOTAMs
Click for the latest NOTAMs
NOTAMs are issued by the DoD/FAA and will open in a separate window not controlled by AirNav.

 

 
 

Would you like to see your business listed on this page?

 If your business provides an interesting product or service to pilots, flight crews, aircraft, or users of the Owen-Withee Airport, you should consider listing it here.  To start the listing process, click on the button below
 
Add a business
 

Other Pages about Owen-Withee Airport

Update a link
 
Copyright © AirNav, LLC. All rights reserved. Privacy Policy  Contact